Time;durP1;ratioP1;P1;durP2;ratioP2;P2;SDS_P1;SDS_P2;PMS_P1;PMS_P2;Temp;Humidity;BMP_temperature;BMP_pressure;BME280_temperature;BME280_humidity;BME280_pressure;Samples;Min_cycle;Max_cycle;Signal;HPM_P1;HPM_P2
2022/01/12 00:00:27;;;;;;;8.83;4.83;;;;;;;-5.24;100.00;101556.64;1715709;82;21031;-77
2022/01/12 00:02:54;;;;;;;8.93;5.07;;;;;;;-5.24;100.00;101558.30;1741986;82;21023;-76
2022/01/12 00:05:21;;;;;;;9.40;4.80;;;;;;;-5.26;100.00;101561.16;1699273;83;21055;-77
2022/01/12 00:07:50;;;;;;;10.57;4.73;;;;;;;-5.36;100.00;101564.97;1676869;84;21056;-77
2022/01/12 00:10:21;;;;;;;11.07;4.93;;;;;;;-5.43;100.00;101571.83;1713324;82;21543;-75
2022/01/12 00:12:48;;;;;;;8.83;5.20;;;;;;;-5.50;100.00;101558.16;1689195;84;21081;-77
2022/01/12 00:15:15;;;;;;;7.47;4.23;;;;;;;-5.46;100.00;101566.67;1708312;83;21031;-78
2022/01/12 00:17:44;;;;;;;8.83;4.83;;;;;;;-5.49;100.00;101565.32;1695772;83;21161;-76
2022/01/12 00:20:11;;;;;;;9.40;4.90;;;;;;;-5.49;100.00;101560.30;1689382;83;21495;-79
2022/01/12 00:22:40;;;;;;;10.57;5.20;;;;;;;-5.51;100.00;101571.52;1737048;82;21078;-78
2022/01/12 00:25:25;;;;;;;10.07;4.77;;;;;;;-5.51;100.00;101566.91;1745493;81;21498;-77
2022/01/12 00:33:16;;;;;;;9.97;5.20;;;;;;;-5.62;100.00;101565.22;1718037;83;21062;-77
2022/01/12 00:35:50;;;;;;;14.83;5.70;;;;;;;-5.62;100.00;101553.94;1716431;82;21064;-74
2022/01/12 00:38:22;;;;;;;9.83;5.63;;;;;;;-5.62;100.00;101569.39;1699836;83;21002;-76
2022/01/12 00:40:53;;;;;;;13.10;5.77;;;;;;;-5.60;100.00;101567.80;1696109;83;21081;-77
2022/01/12 00:43:22;;;;;;;9.67;5.43;;;;;;;-5.66;100.00;101561.77;1711811;83;21075;-77
2022/01/12 00:45:49;;;;;;;13.27;5.80;;;;;;;-5.62;100.00;101561.45;1725088;82;21558;-75
2022/01/12 00:48:18;;;;;;;10.50;5.73;;;;;;;-5.52;100.00;101564.78;1725073;82;21035;-77
2022/01/12 00:50:46;;;;;;;10.17;5.30;;;;;;;-5.53;100.00;101562.23;1724770;83;21036;-75
2022/01/12 00:53:16;;;;;;;10.40;5.00;;;;;;;-5.52;100.00;101578.98;1725047;82;21047;-76
2022/01/12 00:55:43;;;;;;;10.53;5.30;;;;;;;-5.62;100.00;101567.73;1725117;82;21011;-74
2022/01/12 00:58:10;;;;;;;11.03;5.47;;;;;;;-5.64;100.00;101565.19;1724903;83;21067;-77
2022/01/12 01:00:38;;;;;;;9.17;4.93;;;;;;;-5.65;100.00;101567.62;1725167;83;21038;-76
2022/01/12 01:03:05;;;;;;;11.40;5.90;;;;;;;-5.72;100.00;101574.44;1724892;82;21003;-77
2022/01/12 01:05:33;;;;;;;7.17;4.40;;;;;;;-5.71;100.00;101573.25;1724900;82;21551;-76
2022/01/12 01:08:02;;;;;;;10.73;5.37;;;;;;;-5.74;100.00;101577.28;1724744;83;21100;-76
2022/01/12 01:10:44;;;;;;;10.67;5.33;;;;;;;-5.77;100.00;101563.39;1725207;83;21316;-74
2022/01/12 01:12:58;;;;;;;9.97;5.57;;;;;;;-5.69;100.00;101568.30;1722465;83;21487;-76
2022/01/12 01:15:41;;;;;;;9.73;5.47;;;;;;;-5.72;100.00;101560.64;1725263;83;21098;-76
2022/01/12 01:26:11;;;;;;;10.13;4.77;;;;;;;-5.72;100.00;101566.51;1725130;83;21075;-75
2022/01/12 01:28:38;;;;;;;10.63;5.10;;;;;;;-5.70;100.00;101571.59;1724812;83;21110;-77
2022/01/12 01:31:05;;;;;;;11.57;5.77;;;;;;;-5.67;100.00;101584.27;1725357;82;21008;-76
2022/01/12 01:33:33;;;;;;;11.23;5.40;;;;;;;-5.70;100.00;101581.63;1725056;83;21035;-76
2022/01/12 01:36:00;;;;;;;11.67;6.17;;;;;;;-5.68;100.00;101582.17;1704574;83;21055;-76
2022/01/12 01:38:28;;;;;;;12.53;5.77;;;;;;;-5.65;100.00;101583.52;1724737;83;21047;-76
2022/01/12 01:40:54;;;;;;;10.17;5.27;;;;;;;-5.68;100.00;101582.54;1725176;83;21023;-75
2022/01/12 01:54:14;;;;;;;10.03;4.90;;;;;;;-5.89;100.00;101583.41;1725064;83;21067;-74
2022/01/12 01:56:41;;;;;;;12.20;5.67;;;;;;;-5.96;100.00;101579.36;1724974;83;20987;-76
2022/01/12 01:59:09;;;;;;;12.23;4.90;;;;;;;-5.96;100.00;101604.05;1724963;83;21609;-76
2022/01/12 02:01:38;;;;;;;10.03;5.00;;;;;;;-6.02;100.00;101598.79;1724971;82;21067;-76
2022/01/12 02:04:06;;;;;;;8.23;4.53;;;;;;;-6.03;100.00;101588.70;1724931;83;21550;-75
2022/01/12 02:06:38;;;;;;;11.37;5.17;;;;;;;-6.05;100.00;101594.48;1725152;83;21036;-75
2022/01/12 02:09:06;;;;;;;15.33;6.80;;;;;;;-5.98;100.00;101603.14;1725056;83;21024;-75
2022/01/12 02:11:39;;;;;;;10.98;6.05;;;;;;;-5.96;100.00;101596.53;1724890;82;21067;-75
2022/01/12 02:14:12;;;;;;;26.43;10.40;;;;;;;-6.00;100.00;101602.59;1724757;83;21007;-75
2022/01/12 02:16:51;;;;;;;11.73;5.83;;;;;;;-5.95;100.00;101606.16;1724703;83;21526;-75
2022/01/12 02:19:19;;;;;;;22.70;9.17;;;;;;;-5.97;100.00;101608.59;1723262;83;21055;-74
2022/01/12 02:35:46;;;;;;;10.00;4.77;;;;;;;-6.42;100.00;101633.44;1724865;82;21126;-75
2022/01/12 02:40:40;;;;;;;9.40;5.40;;;;;;;-6.45;100.00;101626.66;1724797;83;21043;-75
2022/01/12 02:43:15;;;;;;;10.17;5.10;;;;;;;-6.47;100.00;101630.75;1725258;83;21549;-75
2022/01/12 02:50:42;;;;;;;10.63;5.40;;;;;;;-6.39;100.00;101631.05;1714430;83;21464;-76
2022/01/12 02:51:28;;;;;;;10.83;5.73;;;;;;;-6.37;100.00;101640.74;1704184;83;21126;-74
2022/01/12 02:53:45;;;;;;;13.00;6.33;;;;;;;-6.33;100.00;101647.59;1723812;83;21519;-75
2022/01/12 02:56:19;;;;;;;12.77;6.90;;;;;;;-6.30;100.00;101634.38;1725107;83;21555;-75
2022/01/12 02:58:49;;;;;;;11.33;6.00;;;;;;;-6.27;100.00;101657.04;1704881;83;20987;-75
2022/01/12 03:04:07;;;;;;;11.20;6.33;;;;;;;-6.25;100.00;101637.91;1724699;82;20979;-75
2022/01/12 03:06:38;;;;;;;13.87;6.23;;;;;;;-6.20;100.00;101636.84;1724758;83;21668;-74
2022/01/12 03:09:08;;;;;;;13.00;6.43;;;;;;;-6.19;100.00;101638.58;1724755;82;21502;-75
2022/01/12 03:11:37;;;;;;;9.70;5.50;;;;;;;-6.19;100.00;101623.13;1724932;83;21523;-75
2022/01/12 03:14:13;;;;;;;13.70;6.10;;;;;;;-6.20;100.00;101631.83;1725082;82;21531;-75
2022/01/12 03:16:41;;;;;;;14.40;6.50;;;;;;;-6.21;100.00;101640.16;1724929;83;21059;-75
2022/01/12 03:19:10;;;;;;;13.80;6.97;;;;;;;-6.22;100.00;101649.33;1725305;83;21502;-76
2022/01/12 03:21:38;;;;;;;14.13;6.67;;;;;;;-6.20;100.00;101633.97;1724993;82;21058;-74
2022/01/12 03:24:06;;;;;;;15.87;6.83;;;;;;;-6.15;100.00;101637.91;1724896;83;21054;-74
2022/01/12 03:26:35;;;;;;;14.60;7.37;;;;;;;-6.09;100.00;101634.00;1724852;83;21035;-75
2022/01/12 03:29:03;;;;;;;15.50;7.07;;;;;;;-6.07;100.00;101638.69;1725123;82;21090;-74
2022/01/12 03:31:35;;;;;;;9.63;5.20;;;;;;;-6.13;100.00;101635.92;1725156;83;21063;-75
2022/01/12 03:34:10;;;;;;;15.20;7.33;;;;;;;-6.17;100.00;101659.55;1725158;83;21059;-73
2022/01/12 03:36:55;;;;;;;15.33;8.37;;;;;;;-6.14;100.00;101648.38;1724987;82;21531;-74
2022/01/12 03:39:12;;;;;;;15.07;7.93;;;;;;;-6.16;100.00;101650.84;1715274;82;21059;-74
2022/01/12 03:41:42;;;;;;;14.47;8.40;;;;;;;-6.13;100.00;101647.20;1725141;83;21098;-74
2022/01/12 03:44:12;;;;;;;15.07;7.10;;;;;;;-6.15;100.00;101647.53;1725071;83;21034;-73
2022/01/12 03:46:49;;;;;;;17.63;7.97;;;;;;;-6.18;100.00;101661.20;1725186;83;21004;-74
2022/01/12 03:49:20;;;;;;;12.50;6.77;;;;;;;-6.22;100.00;101647.20;1725215;83;21062;-74
2022/01/12 03:51:48;;;;;;;16.27;6.73;;;;;;;-6.26;100.00;101647.09;1724873;83;21082;-73
2022/01/12 03:54:16;;;;;;;13.63;7.10;;;;;;;-6.35;100.00;101652.09;1725123;83;21510;-74
2022/01/12 03:56:44;;;;;;;13.67;6.57;;;;;;;-6.35;100.00;101643.32;1725222;83;21008;-74
2022/01/12 03:59:11;;;;;;;11.53;6.30;;;;;;;-6.37;100.00;101651.17;1724802;82;21004;-73
2022/01/12 04:01:38;;;;;;;12.73;6.97;;;;;;;-6.34;100.00;101648.81;1725141;82;21094;-74
2022/01/12 04:04:09;;;;;;;17.53;8.00;;;;;;;-6.34;100.00;101653.83;1725027;82;21567;-73
2022/01/12 04:09:21;;;;;;;16.53;7.67;;;;;;;-6.35;100.00;101647.93;1707836;83;21071;-73
2022/01/12 04:11:49;;;;;;;17.00;8.03;;;;;;;-6.37;100.00;101638.64;1721938;83;21051;-73
2022/01/12 04:14:16;;;;;;;16.50;8.30;;;;;;;-6.34;100.00;101646.30;1725179;82;21016;-72
2022/01/12 04:16:44;;;;;;;18.10;7.43;;;;;;;-6.38;100.00;101641.95;1704449;83;21094;-73
2022/01/12 04:19:12;;;;;;;16.10;8.23;;;;;;;-6.37;100.00;101634.48;1725096;82;21066;-73
2022/01/12 04:21:47;;;;;;;18.23;8.07;;;;;;;-6.32;100.00;101631.80;1721279;83;21066;-73
2022/01/12 04:24:13;;;;;;;17.83;7.87;;;;;;;-6.34;100.00;101643.80;1724801;83;21063;-72
2022/01/12 04:26:40;;;;;;;16.37;7.73;;;;;;;-6.33;100.00;101645.50;1725078;83;21054;-72
2022/01/12 04:29:08;;;;;;;15.90;7.47;;;;;;;-6.36;100.00;101647.48;1724916;82;21508;-73
2022/01/12 04:31:37;;;;;;;14.63;6.93;;;;;;;-6.38;100.00;101646.56;1725107;83;21031;-72
2022/01/12 04:34:05;;;;;;;13.67;7.70;;;;;;;-6.35;100.00;101650.44;1724974;82;21413;-71
2022/01/12 04:36:33;;;;;;;14.23;6.87;;;;;;;-6.32;100.00;101654.34;1724837;83;21098;-72
2022/01/12 04:39:00;;;;;;;15.07;6.50;;;;;;;-6.32;100.00;101650.98;1704627;83;21075;-72
2022/01/12 04:41:27;;;;;;;12.10;6.10;;;;;;;-6.32;100.00;101650.98;1724843;82;21047;-72
2022/01/12 04:43:57;;;;;;;13.63;7.13;;;;;;;-6.31;100.00;101651.44;1725133;82;21003;-72
2022/01/12 04:46:30;;;;;;;17.17;7.37;;;;;;;-6.26;100.00;101663.38;1710279;83;21693;-72
2022/01/12 04:49:26;;;;;;;14.40;7.00;;;;;;;-6.31;100.00;101652.69;1696371;83;21000;-71
2022/01/12 04:51:37;;;;;;;;;;;;;;;-6.32;100.00;101651.84;1722859;83;21079;-72
2022/01/12 04:54:04;;;;;;;11.37;5.83;;;;;;;-6.45;100.00;101650.45;1724761;83;20531;-72
2022/01/12 04:56:32;;;;;;;12.20;5.73;;;;;;;-6.47;100.00;101654.55;1724741;83;21055;-72
2022/01/12 04:59:01;;;;;;;10.50;5.40;;;;;;;-6.51;100.00;101652.70;1724995;82;21059;-72
2022/01/12 05:01:35;;;;;;;13.10;6.70;;;;;;;-6.60;100.00;101661.45;1725011;82;21019;-72
2022/01/12 05:06:51;;;;;;;14.40;6.57;;;;;;;-6.59;100.00;101665.65;1724988;83;21011;-72
2022/01/12 05:09:29;;;;;;;14.17;6.00;;;;;;;-6.54;100.00;101662.97;1724165;83;21055;-72
2022/01/12 05:14:39;;;;;;;13.37;6.67;;;;;;;-6.49;100.00;101660.25;1676677;84;21517;-72
2022/01/12 05:17:04;;;;;;;14.00;7.47;;;;;;;-6.43;100.00;101668.03;1683284;83;21514;-72
2022/01/12 05:19:33;;;;;;;13.67;6.97;;;;;;;-6.38;100.00;101669.11;1694106;83;21008;-71
2022/01/12 05:22:00;;;;;;;15.80;7.70;;;;;;;-6.39;100.00;101666.53;1705245;84;21543;-71
2022/01/12 05:24:27;;;;;;;14.67;7.63;;;;;;;-6.38;100.00;101668.27;1745611;81;20971;-71
2022/01/12 05:26:54;;;;;;;11.33;6.30;;;;;;;-6.36;100.00;101677.55;1740886;81;21006;-72
2022/01/12 05:29:21;;;;;;;13.57;6.73;;;;;;;-6.40;100.00;101674.45;1705414;82;21011;-72
2022/01/12 05:31:49;;;;;;;12.77;6.80;;;;;;;-6.42;100.00;101668.52;1704945;82;21095;-72
2022/01/12 05:34:17;;;;;;;11.47;7.13;;;;;;;-6.47;100.00;101677.46;1708579;83;21037;-71
2022/01/12 05:36:44;;;;;;;13.37;6.93;;;;;;;-6.49;100.00;101672.78;1636088;86;21724;-72
2022/01/12 05:39:11;;;;;;;10.57;5.27;;;;;;;-6.53;100.00;101685.95;1695459;83;21039;-72
2022/01/12 05:41:38;;;;;;;11.77;6.60;;;;;;;-6.63;100.00;101680.92;1694551;83;21074;-73
2022/01/12 05:44:07;;;;;;;13.23;7.17;;;;;;;-6.67;100.00;101668.69;1667293;83;21016;-71
2022/01/12 05:46:36;;;;;;;13.80;6.90;;;;;;;-6.60;100.00;101677.72;1693393;83;21512;-71
2022/01/12 05:51:51;;;;;;;9.43;5.37;;;;;;;-6.66;100.00;101682.06;1735235;80;20994;-72
2022/01/12 05:54:18;;;;;;;10.60;6.00;;;;;;;-6.66;100.00;101684.16;1727148;82;21055;-72
2022/01/12 05:56:47;;;;;;;13.10;6.80;;;;;;;-6.64;100.00;101685.48;1675305;83;21032;-73
2022/01/12 05:59:14;;;;;;;12.87;6.50;;;;;;;-6.64;100.00;101680.48;1671603;83;21143;-72
2022/01/12 06:01:42;;;;;;;10.07;5.50;;;;;;;-6.68;100.00;101704.52;1676385;82;21045;-72
2022/01/12 06:04:09;;;;;;;11.60;6.20;;;;;;;-6.75;100.00;101686.27;1693179;82;21126;-72
2022/01/12 06:06:38;;;;;;;12.80;6.17;;;;;;;-6.76;100.00;101682.03;1696582;82;21529;-73
2022/01/12 06:09:05;;;;;;;13.27;6.87;;;;;;;-6.72;100.00;101688.05;1678481;81;21080;-73
2022/01/12 06:11:32;;;;;;;15.60;7.23;;;;;;;-6.73;100.00;101687.19;1673364;83;21410;-73
2022/01/12 06:13:59;;;;;;;13.83;6.77;;;;;;;-6.68;100.00;101693.66;1680632;84;21021;-72
2022/01/12 06:16:29;;;;;;;14.57;7.00;;;;;;;-6.70;100.00;101693.98;1671437;84;21044;-73
2022/01/12 06:18:57;;;;;;;14.77;7.07;;;;;;;-6.67;100.00;101694.98;1663814;83;21079;-73
2022/01/12 06:21:26;;;;;;;12.80;6.97;;;;;;;-6.62;100.00;101688.06;1718042;81;20964;-74
2022/01/12 06:23:57;;;;;;;13.50;6.53;;;;;;;-6.68;100.00;101694.50;1691130;82;20996;-74
2022/01/12 06:26:26;;;;;;;12.10;6.47;;;;;;;-6.70;100.00;101703.99;1687748;82;21039;-72
2022/01/12 06:29:22;;;;;;;12.27;5.73;;;;;;;-6.66;100.00;101697.08;1709122;83;21031;-73
2022/01/12 06:31:26;;;;;;;13.13;6.77;;;;;;;-6.65;100.00;101694.66;1705281;83;20976;-73
2022/01/12 06:33:52;;;;;;;15.63;6.77;;;;;;;-6.60;100.00;101695.25;1709861;83;20983;-73
2022/01/12 06:36:22;;;;;;;15.83;7.40;;;;;;;-6.61;100.00;101708.55;1711051;83;21035;-73
2022/01/12 06:38:49;;;;;;;18.63;7.10;;;;;;;-6.59;100.00;101693.20;1716280;81;21019;-74
2022/01/12 06:41:17;;;;;;;11.63;6.07;;;;;;;-6.61;100.00;101702.29;1710709;83;20987;-70
2022/01/12 06:43:45;;;;;;;11.97;5.90;;;;;;;-6.58;100.00;101714.56;1716312;81;21027;-73
2022/01/12 06:46:22;;;;;;;12.33;6.30;;;;;;;-6.55;100.00;101722.23;1709926;83;20944;-73
2022/01/12 06:48:46;;;;;;;10.97;4.83;;;;;;;-6.66;100.00;101718.37;1715537;81;21051;-72
2022/01/12 06:51:13;;;;;;;11.20;5.73;;;;;;;-6.71;100.00;101719.42;1709790;83;21019;-72
2022/01/12 06:53:40;;;;;;;10.17;5.30;;;;;;;-6.65;100.00;101719.70;1708144;83;21086;-73
2022/01/12 06:56:08;;;;;;;12.10;5.43;;;;;;;-6.65;100.00;101717.20;1716163;81;20988;-72
2022/01/12 06:58:37;;;;;;;9.93;5.07;;;;;;;-6.60;100.00;101706.52;1710636;83;21504;-72
2022/01/12 07:01:04;;;;;;;10.93;5.27;;;;;;;-6.59;100.00;101710.33;1708168;83;20960;-73
2022/01/12 07:03:34;;;;;;;12.67;5.70;;;;;;;-6.59;100.00;101713.23;1715987;82;21019;-73
2022/01/12 07:06:01;;;;;;;13.77;5.33;;;;;;;-6.48;100.00;101715.44;1712361;82;21031;-72
2022/01/12 07:08:29;;;;;;;11.53;5.80;;;;;;;-6.40;100.00;101718.70;1713567;83;21020;-73
2022/01/12 07:10:58;;;;;;;12.97;5.67;;;;;;;-6.43;100.00;101726.05;1736934;80;21101;-73
2022/01/12 07:13:25;;;;;;;10.97;6.10;;;;;;;-6.42;100.00;101719.88;1675618;83;21078;-72
2022/01/12 07:15:52;;;;;;;10.77;5.27;;;;;;;-6.37;100.00;101724.67;1732227;82;21011;-71
2022/01/12 07:18:21;;;;;;;10.53;5.60;;;;;;;-6.32;100.00;101714.87;1721163;81;20980;-71
2022/01/12 07:20:49;;;;;;;12.20;5.23;;;;;;;-6.36;100.00;101715.53;1715458;82;21023;-71
2022/01/12 07:23:16;;;;;;;9.63;5.07;;;;;;;-6.32;100.00;101718.64;1714886;82;20988;-72
2022/01/12 07:25:43;;;;;;;10.20;6.07;;;;;;;-6.36;100.00;101718.89;1722410;82;21139;-73
2022/01/12 07:28:10;;;;;;;10.63;4.73;;;;;;;-6.41;100.00;101715.70;1713926;82;21067;-72
2022/01/12 07:30:37;;;;;;;10.40;5.17;;;;;;;-6.37;100.00;101715.05;1736314;80;21838;-72
2022/01/12 07:33:04;;;;;;;10.47;5.20;;;;;;;-6.41;100.00;101722.83;1728206;81;21409;-71
2022/01/12 07:35:31;;;;;;;9.37;5.07;;;;;;;-6.37;100.00;101722.57;1731288;82;21027;-72
2022/01/12 07:37:58;;;;;;;11.10;5.43;;;;;;;-6.32;100.00;101717.38;1730464;82;20960;-72
2022/01/12 07:40:25;;;;;;;8.50;4.53;;;;;;;-6.28;100.00;101712.56;1729335;82;21562;-71
2022/01/12 07:42:52;;;;;;;14.57;6.40;;;;;;;-6.34;100.00;101713.55;1707037;82;21515;-72
2022/01/12 07:45:19;;;;;;;11.97;5.43;;;;;;;-6.28;100.00;101713.82;1698408;82;21047;-72
2022/01/12 07:47:47;;;;;;;18.57;7.53;;;;;;;-6.21;100.00;101699.05;1687298;82;21044;-72
2022/01/12 07:50:14;;;;;;;21.40;7.53;;;;;;;-6.06;100.00;101705.59;1734674;81;20993;-72
2022/01/12 07:52:41;;;;;;;11.50;5.27;;;;;;;-5.89;100.00;101714.19;1702976;82;21011;-71
2022/01/12 07:55:09;;;;;;;10.67;5.73;;;;;;;-5.94;100.00;101719.02;1702864;83;21027;-73
2022/01/12 07:57:36;;;;;;;12.13;5.40;;;;;;;-5.95;100.00;101721.48;1721072;83;21083;-72
2022/01/12 08:00:06;;;;;;;12.27;5.37;;;;;;;-5.93;100.00;101719.46;1729247;83;21478;-71
2022/01/12 08:02:35;;;;;;;12.13;5.90;;;;;;;-6.06;100.00;101719.38;1719180;82;21118;-72
2022/01/12 08:05:02;;;;;;;12.93;5.43;;;;;;;-5.99;100.00;101724.25;1715618;82;20988;-72
2022/01/12 08:07:35;;;;;;;14.17;6.20;;;;;;;-5.97;100.00;101723.91;1694551;83;21035;-73
2022/01/12 08:09:58;;;;;;;11.80;5.63;;;;;;;-5.93;100.00;101727.39;1721240;81;21055;-72
2022/01/12 08:12:24;;;;;;;16.70;6.13;;;;;;;-5.89;100.00;101715.03;1712188;83;21032;-72
2022/01/12 08:14:51;;;;;;;9.70;5.67;;;;;;;-5.77;100.00;101722.63;1719169;83;21011;-72
2022/01/12 08:17:18;;;;;;;11.03;6.03;;;;;;;-5.85;100.00;101720.64;1713553;83;21028;-71
2022/01/12 08:19:44;;;;;;;10.93;5.50;;;;;;;-5.86;100.00;101730.23;1720796;83;21558;-73
2022/01/12 08:22:11;;;;;;;13.60;6.47;;;;;;;-5.75;100.00;101728.56;1709689;83;21465;-73
2022/01/12 08:24:38;;;;;;;17.07;6.30;;;;;;;-5.71;100.00;101719.97;1711232;83;21087;-72
2022/01/12 08:27:06;;;;;;;10.67;5.60;;;;;;;-5.59;100.00;101715.87;1713963;83;21110;-72
2022/01/12 08:29:34;;;;;;;13.40;5.90;;;;;;;-5.52;100.00;101725.75;1708382;83;21036;-72
2022/01/12 08:32:01;;;;;;;20.43;8.60;;;;;;;-5.66;100.00;101723.92;1707005;84;21017;-72
2022/01/12 08:34:29;;;;;;;15.30;6.37;;;;;;;-5.69;100.00;101710.86;1703135;82;21078;-72
2022/01/12 08:36:56;;;;;;;15.40;6.83;;;;;;;-5.43;100.00;101703.55;1709784;83;21060;-72
2022/01/12 08:39:24;;;;;;;14.60;6.63;;;;;;;-5.47;99.49;101704.23;1734619;81;21053;-71
2022/01/12 08:41:53;;;;;;;19.67;7.83;;;;;;;-5.29;98.83;101706.59;1662252;85;21188;-73
2022/01/12 08:44:19;;;;;;;17.00;7.00;;;;;;;-5.26;98.01;101702.56;1657225;84;21386;-72
2022/01/12 08:46:46;;;;;;;11.70;6.30;;;;;;;-5.30;97.04;101709.91;1699945;82;21102;-72
2022/01/12 08:49:13;;;;;;;12.43;5.70;;;;;;;-5.34;96.16;101703.06;1720503;81;21050;-73
2022/01/12 08:51:40;;;;;;;14.77;6.97;;;;;;;-5.42;95.81;101702.75;1686950;83;21035;-72
2022/01/12 08:54:09;;;;;;;9.73;5.03;;;;;;;-5.56;96.37;101695.06;1691843;83;21527;-73
2022/01/12 08:56:37;;;;;;;10.23;5.50;;;;;;;-5.57;96.43;101698.37;1695476;83;21528;-73
2022/01/12 08:59:04;;;;;;;9.13;5.60;;;;;;;-5.62;96.48;101704.44;1693954;83;21071;-73
2022/01/12 09:01:32;;;;;;;11.53;6.13;;;;;;;-5.54;97.59;101695.57;1685540;83;21078;-72
2022/01/12 09:03:59;;;;;;;12.70;6.50;;;;;;;-5.45;99.15;101692.60;1686881;83;21584;-72
2022/01/12 09:06:26;;;;;;;13.37;7.70;;;;;;;-5.37;99.47;101692.88;1690269;83;21075;-72
2022/01/12 09:08:53;;;;;;;12.37;7.30;;;;;;;-5.53;100.00;101693.54;1682880;83;21153;-73
2022/01/12 09:11:21;;;;;;;14.63;6.97;;;;;;;-5.53;100.00;101687.27;1680052;83;21029;-72
2022/01/12 09:13:47;;;;;;;11.63;6.37;;;;;;;-5.40;100.00;101689.86;1701516;83;21074;-72
2022/01/12 09:16:15;;;;;;;12.03;6.27;;;;;;;-5.55;100.00;101701.40;1720798;83;21019;-73
2022/01/12 09:18:43;;;;;;;12.73;6.43;;;;;;;-5.63;100.00;101685.18;1706181;83;21066;-73
2022/01/12 09:21:10;;;;;;;18.50;6.67;;;;;;;-5.56;100.00;101680.00;1729624;83;21047;-71
2022/01/12 09:23:39;;;;;;;14.13;6.90;;;;;;;-5.47;100.00;101684.16;1724845;82;21055;-73
2022/01/12 09:26:07;;;;;;;12.57;6.90;;;;;;;-5.30;100.00;101686.07;1725054;83;21078;-72
2022/01/12 09:28:34;;;;;;;12.00;6.97;;;;;;;-5.22;100.00;101688.89;1704505;83;21044;-72
2022/01/12 09:31:01;;;;;;;11.00;6.27;;;;;;;-5.26;100.00;101681.63;1724958;82;21083;-74
2022/01/12 09:33:28;;;;;;;12.47;6.60;;;;;;;-5.24;100.00;101675.02;1724869;82;21035;-73
2022/01/12 09:35:55;;;;;;;14.80;7.00;;;;;;;-5.29;100.00;101688.65;1724955;83;21036;-74
2022/01/12 09:38:22;;;;;;;14.47;7.60;;;;;;;-5.33;100.00;101681.80;1725120;82;21019;-73
2022/01/12 09:40:53;;;;;;;16.63;8.63;;;;;;;-5.39;100.00;101675.66;1724854;82;21008;-73
2022/01/12 09:43:28;;;;;;;12.97;6.50;;;;;;;-5.27;100.00;101669.48;1724975;83;21094;-73
2022/01/12 09:45:55;;;;;;;13.38;6.87;;;;;;;-5.39;100.00;101675.66;1725200;82;21356;-73
2022/01/12 09:48:26;;;;;;;15.97;7.07;;;;;;;-5.55;100.00;101680.48;1725154;83;21106;-73
2022/01/12 09:50:58;;;;;;;15.17;6.83;;;;;;;-5.63;100.00;101668.88;1725112;83;21074;-73
2022/01/12 09:53:23;;;;;;;14.53;7.50;;;;;;;-5.71;100.00;101693.64;1725163;83;20992;-73
2022/01/12 09:55:50;;;;;;;13.33;7.07;;;;;;;-5.82;100.00;101677.68;1725185;83;21502;-73
2022/01/12 09:58:17;;;;;;;15.93;6.77;;;;;;;-5.86;100.00;101675.06;1725053;82;21020;-74
2022/01/12 10:00:59;;;;;;;13.67;6.50;;;;;;;-5.89;100.00;101684.10;1725069;82;21535;-73
2022/01/12 10:03:27;;;;;;;13.83;7.40;;;;;;;-5.97;100.00;101676.28;1725200;82;21074;-73
2022/01/12 10:05:55;;;;;;;13.43;6.10;;;;;;;-5.90;100.00;101674.47;1725061;82;21641;-74
2022/01/12 10:08:22;;;;;;;11.60;6.33;;;;;;;-5.91;100.00;101674.41;1724993;83;21523;-73
2022/01/12 10:11:03;;;;;;;14.40;6.93;;;;;;;-5.97;100.00;101675.03;1724827;83;21036;-73
2022/01/12 10:13:31;;;;;;;15.27;7.63;;;;;;;-6.02;100.00;101676.50;1725076;82;20995;-73
2022/01/12 10:16:12;;;;;;;15.83;8.17;;;;;;;-5.98;100.00;101665.81;1724951;83;21059;-73
2022/01/12 10:18:54;;;;;;;16.60;7.53;;;;;;;-5.86;100.00;101667.54;1724603;83;21068;-73
2022/01/12 10:21:35;;;;;;;19.47;8.33;;;;;;;-5.90;100.00;101666.07;1725081;83;21062;-73
2022/01/12 10:24:07;;;;;;;14.53;7.43;;;;;;;-5.87;100.00;101664.96;1724469;83;21024;-73
2022/01/12 10:26:41;;;;;;;14.33;7.30;;;;;;;-5.82;100.00;101661.38;1725181;83;21063;-73
2022/01/12 10:29:14;;;;;;;17.40;8.20;;;;;;;-5.84;100.00;101664.70;1725075;83;21547;-74
2022/01/12 10:32:00;;;;;;;18.23;8.13;;;;;;;-5.97;100.00;101660.39;1725243;83;21526;-73
2022/01/12 10:34:40;;;;;;;19.60;7.97;;;;;;;-6.03;100.00;101653.87;1725174;83;21063;-75
2022/01/12 10:37:16;;;;;;;15.23;7.50;;;;;;;-5.94;100.00;101663.86;1723590;83;21570;-74
2022/01/12 10:39:49;;;;;;;14.60;7.07;;;;;;;-5.96;100.00;101654.20;1724986;82;21099;-73
2022/01/12 10:42:23;;;;;;;13.73;6.57;;;;;;;-5.82;100.00;101658.47;1725320;83;21032;-73
2022/01/12 10:44:54;;;;;;;19.70;7.60;;;;;;;-5.77;100.00;101653.67;1706615;83;21050;-74
2022/01/12 10:47:27;;;;;;;24.67;9.47;;;;;;;-5.60;100.00;101650.17;1725030;82;21050;-74
2022/01/12 10:50:00;;;;;;;15.80;7.28;;;;;;;-5.54;100.00;101651.67;1725399;82;21062;-72
2022/01/12 10:52:39;;;;;;;16.57;7.30;;;;;;;-5.62;100.00;101673.08;1725259;83;21074;-74
2022/01/12 10:55:10;;;;;;;16.70;7.03;;;;;;;-5.59;100.00;101647.29;1725173;82;21079;-72
2022/01/12 10:57:41;;;;;;;27.57;10.23;;;;;;;-5.70;100.00;101659.38;1725099;83;21300;-73
2022/01/12 11:00:21;;;;;;;27.77;10.60;;;;;;;-5.76;100.00;101651.20;1725141;82;21059;-73
2022/01/12 11:02:58;;;;;;;23.20;10.10;;;;;;;-5.66;100.00;101658.33;1725203;82;21032;-74
2022/01/12 11:05:29;;;;;;;16.60;8.17;;;;;;;-5.80;100.00;101664.41;1725162;82;21015;-74
2022/01/12 11:07:56;;;;;;;17.77;8.00;;;;;;;-5.95;100.00;101658.40;1725164;82;21031;-73
2022/01/12 11:10:26;;;;;;;15.83;8.10;;;;;;;-6.02;100.00;101666.48;1704751;83;21546;-73
2022/01/12 11:12:54;;;;;;;15.63;7.53;;;;;;;-6.07;100.00;101648.71;1725172;82;21535;-74
2022/01/12 11:15:22;;;;;;;15.27;7.47;;;;;;;-6.03;100.00;101652.61;1725225;82;21507;-73
2022/01/12 11:17:52;;;;;;;17.07;6.97;;;;;;;-5.96;100.00;101649.18;1725002;83;21090;-73
2022/01/12 11:20:28;;;;;;;21.00;9.13;;;;;;;-5.91;100.00;101650.18;1725162;82;21530;-73
2022/01/12 11:23:12;;;;;;;17.77;8.73;;;;;;;-5.94;100.00;101657.97;1725290;82;21007;-73
2022/01/12 11:25:43;;;;;;;20.25;8.78;;;;;;;-5.99;100.00;101656.97;1714348;83;21082;-73
2022/01/12 11:28:17;;;;;;;19.03;8.50;;;;;;;-6.00;100.00;101654.86;1700601;83;21554;-74
2022/01/12 11:30:58;;;;;;;15.17;7.47;;;;;;;-5.90;100.00;101675.73;1725959;83;21067;-73
2022/01/12 11:33:40;;;;;;;12.77;6.60;;;;;;;-5.99;100.00;101674.11;1725211;83;21035;-72
2022/01/12 11:36:30;;;;;;;14.10;7.30;;;;;;;-5.99;100.00;101664.08;1725157;83;21546;-74
2022/01/12 11:39:17;;;;;;;13.97;6.83;;;;;;;-6.06;100.00;101670.50;1723743;81;21082;-73
2022/01/12 11:41:49;;;;;;;15.50;8.00;;;;;;;-6.14;100.00;101667.17;1704773;83;21063;-74
2022/01/12 11:44:28;;;;;;;23.83;9.20;;;;;;;-6.20;100.00;101661.53;1725327;83;21016;-73
2022/01/12 11:47:01;;;;;;;22.13;9.87;;;;;;;-6.28;100.00;101669.97;1725387;82;21039;-73
2022/01/12 11:49:36;;;;;;;27.23;12.40;;;;;;;-6.30;100.00;101668.20;1725262;82;21030;-73
2022/01/12 11:52:17;;;;;;;19.70;8.40;;;;;;;-6.23;100.00;101678.93;1725133;83;20999;-73
2022/01/12 11:54:47;;;;;;;18.17;8.00;;;;;;;-6.25;100.00;101667.98;1723625;83;21028;-73
2022/01/12 11:57:19;;;;;;;14.70;7.43;;;;;;;-6.24;100.00;101675.98;1725174;82;21031;-74
2022/01/12 11:59:54;;;;;;;19.30;8.80;;;;;;;-6.33;100.00;101676.41;1725159;83;21064;-73
2022/01/12 12:02:43;;;;;;;21.27;10.10;;;;;;;-6.31;100.00;101677.34;1725287;83;21043;-73
2022/01/12 12:05:16;;;;;;;19.40;7.77;;;;;;;-6.31;100.00;101677.34;1725184;82;21031;-73
2022/01/12 12:07:52;;;;;;;18.25;6.33;;;;;;;-6.36;100.00;101677.95;1704854;83;21024;-73
2022/01/12 12:10:26;;;;;;;15.93;7.57;;;;;;;-6.35;100.00;101679.65;1724939;82;21082;-74
2022/01/12 12:12:56;;;;;;;21.60;9.27;;;;;;;-6.43;100.00;101681.81;1724911;82;21035;-73
2022/01/12 12:15:26;;;;;;;16.63;8.57;;;;;;;-6.43;100.00;101688.08;1724872;82;21035;-73
2022/01/12 12:17:55;;;;;;;29.53;9.80;;;;;;;-6.42;100.00;101681.45;1725210;82;21027;-73